Time,TemperatureF,DewpointF,PressureIn,WindDirection,WindDirectionDegrees,WindSpeedMPH,WindSpeedGustMPH,Humidity,HourlyPrecipIn,Conditions,Clouds,dailyrainin,SoftwareType,DateUTC
2013-01-01 00:04:00,9.7,5.0,30.59,SSW,213,3.5,3.5,81,0.00,CLR,,0.00,WeatherDisplay:10.37,2013-01-01 08:04:00,
2013-01-01 00:09:00,9.9,5.5,30.59,SSW,213,3.5,3.5,82,0.00,CLR,,0.00,WeatherDisplay:10.37,2013-01-01 08:09:00,
2013-01-01 00:14:00,10.0,5.6,30.59,SSW,213,3.5,3.5,82,0.00,CLR,,0.00,WeatherDisplay:10.37,2013-01-01 08:14:00,
2013-01-01 00:19:00,10.2,5.8,30.59,SW,224,3.5,3.5,82,0.00,CLR,,0.00,WeatherDisplay:10.37,2013-01-01 08:19:00,
2013-01-01 00:24:00,10.4,6.0,30.59,SW,224,3.5,3.5,82,0.00,CLR,,0.00,WeatherDisplay:10.37,2013-01-01 08:24:00,
2013-01-01 00:29:00,10.9,6.8,30.58,SW,224,3.5,3.5,83,0.00,CLR,,0.00,WeatherDisplay:10.37,2013-01-01 08:29:00,
2013-01-01 00:34:00,11.2,7.0,30.58,SW,224,2.3,2.3,83,0.00,CLR,,0.00,WeatherDisplay:10.37,2013-01-01 08:34:00,
2013-01-01 00:39:00,11.2,7.0,30.59,SW,223,2.3,2.3,83,0.00,CLR,,0.00,WeatherDisplay:10.37,2013-01-01 08:39:00,
2013-01-01 00:44:00,11.1,6.7,30.58,SW,223,2.3,2.3,82,0.00,CLR,,0.00,WeatherDisplay:10.37,2013-01-01 08:44:00,
2013-01-01 00:49:00,11.2,7.0,30.58,SW,223,3.5,3.5,83,0.00,CLR,,0.00,WeatherDisplay:10.37,2013-01-01 08:49:00,
2013-01-01 00:54:00,11.2,6.8,30.58,SW,223,3.5,3.5,82,0.00,CLR,,0.00,WeatherDisplay:10.37,2013-01-01 08:54:00,
2013-01-01 00:59:00,10.9,6.5,30.58,SW,223,3.5,3.5,82,0.00,CLR,,0.00,WeatherDisplay:10.37,2013-01-01 08:59:00,
2013-01-01 01:04:00,10.9,6.5,30.59,SW,223,3.5,3.5,82,0.00,CLR,,0.00,WeatherDisplay:10.37,2013-01-01 09:04:00,
2013-01-01 01:09:00,10.7,6.0,30.59,SW,223,2.3,2.3,81,0.00,CLR,,0.00,WeatherDisplay:10.37,2013-01-01 09:09:00,
2013-01-01 01:14:00,10.7,6.3,30.59,SW,223,4.6,4.6,82,0.00,CLR,,0.00,WeatherDisplay:10.37,2013-01-01 09:14:00,
2013-01-01 01:19:00,10.5,5.8,30.60,SW,223,2.3,2.3,81,0.00,CLR,,0.00,WeatherDisplay:10.37,2013-01-01 09:19:00,
2013-01-01 01:24:00,10.9,6.5,30.60,SW,223,3.5,3.5,82,0.00,CLR,,0.00,WeatherDisplay:10.37,2013-01-01 09:24:00,
2013-01-01 01:29:00,11.1,6.7,30.60,SW,223,3.5,3.5,82,0.00,CLR,,0.00,WeatherDisplay:10.37,2013-01-01 09:29:00,
2013-01-01 01:34:00,11.1,6.4,30.60,SW,229,2.3,2.3,81,0.00,CLR,,0.00,WeatherDisplay:10.37,2013-01-01 09:34:00,
2013-01-01 01:39:00,11.2,6.8,30.61,WSW,244,4.6,4.6,82,0.00,CLR,,0.00,WeatherDisplay:10.37,2013-01-01 09:39:00,
2013-01-01 01:44:00,11.6,7.4,30.61,WSW,246,3.5,3.5,83,0.00,CLR,,0.00,WeatherDisplay:10.37,2013-01-01 09:44:00,
2013-01-01 01:49:00,11.6,7.4,30.61,WSW,246,2.3,2.3,83,0.00,CLR,,0.00,WeatherDisplay:10.37,2013-01-01 09:49:00,
2013-01-01 01:54:00,11.7,7.5,30.61,WSW,246,1.1,1.1,83,0.00,CLR,,0.00,WeatherDisplay:10.37,2013-01-01 09:54:00,
2013-01-01 01:59:00,11.9,7.7,30.62,WSW,246,0.0,0.0,83,0.00,CLR,,0.00,WeatherDisplay:10.37,2013-01-01 09:59:00,
2013-01-01 02:04:00,12.1,8.2,30.61,WSW,246,1.1,0.0,84,0.00,CLR,,0.00,WeatherDisplay:10.37,2013-01-01 10:04:00,
2013-01-01 02:09:00,12.3,8.4,30.61,WSW,246,0.0,0.0,84,0.00,CLR,,0.00,WeatherDisplay:10.37,2013-01-01 10:09:00,
2013-01-01 02:14:00,12.1,7.9,30.61,WSW,246,0.0,0.0,83,0.00,CLR,,0.00,WeatherDisplay:10.37,2013-01-01 10:14:00,
2013-01-01 02:19:00,12.1,8.2,30.61,WSW,246,0.0,0.0,84,0.00,CLR,,0.00,WeatherDisplay:10.37,2013-01-01 10:19:00,
2013-01-01 02:24:00,11.9,7.7,30.61,WSW,246,0.0,0.0,83,0.00,CLR,,0.00,WeatherDisplay:10.37,2013-01-01 10:24:00,
2013-01-01 02:29:00,11.4,7.2,30.61,WSW,246,2.3,2.3,83,0.00,CLR,,0.00,WeatherDisplay:10.37,2013-01-01 10:29:00,
2013-01-01 02:34:00,11.4,7.2,30.62,WSW,246,1.1,0.0,83,0.00,CLR,,0.00,WeatherDisplay:10.37,2013-01-01 10:34:00,
2013-01-01 02:39:00,11.1,6.9,30.62,WSW,246,1.1,0.0,83,0.00,CLR,,0.00,WeatherDisplay:10.37,2013-01-01 10:39:00,
2013-01-01 02:44:00,11.1,6.9,30.63,WSW,246,0.0,0.0,83,0.00,CLR,,0.00,WeatherDisplay:10.37,2013-01-01 10:44:00,
2013-01-01 02:49:00,11.1,6.9,30.63,WSW,246,1.0,0.0,83,0.00,CLR,,0.00,WeatherDisplay:10.37,2013-01-01 10:49:00,
2013-01-01 02:54:00,11.1,6.9,30.63,WSW,246,0.0,0.0,83,0.00,CLR,,0.00,WeatherDisplay:10.37,2013-01-01 10:54:00,
2013-01-01 02:59:00,11.1,6.9,30.63,WSW,246,0.0,0.0,83,0.00,CLR,,0.00,WeatherDisplay:10.37,2013-01-01 10:59:00,
2013-01-01 03:04:00,11.1,6.9,30.63,WSW,246,0.0,0.0,83,0.00,CLR,,0.00,WeatherDisplay:10.37,2013-01-01 11:04:00,
2013-01-01 03:09:00,11.1,6.9,30.63,WSW,246,0.0,0.0,83,0.00,CLR,,0.00,WeatherDisplay:10.37,2013-01-01 11:09:00,
2013-01-01 03:14:00,11.2,7.0,30.63,WSW,246,0.0,0.0,83,0.00,CLR,,0.00,WeatherDisplay:10.37,2013-01-01 11:14:00,
2013-01-01 03:19:00,11.2,7.0,30.63,WSW,246,0.0,0.0,83,0.00,CLR,,0.00,WeatherDisplay:10.37,2013-01-01 11:19:00,
2013-01-01 03:24:00,11.6,7.4,30.63,WSW,246,0.0,0.0,83,0.00,CLR,,0.00,WeatherDisplay:10.37,2013-01-01 11:24:00,
2013-01-01 03:29:00,11.7,7.5,30.63,WSW,246,0.0,0.0,83,0.00,CLR,,0.00,WeatherDisplay:10.37,2013-01-01 11:29:00,
2013-01-01 03:34:00,11.9,7.5,30.63,WSW,246,0.0,0.0,82,0.00,CLR,,0.00,WeatherDisplay:10.37,2013-01-01 11:34:00,
2013-01-01 03:39:00,12.1,7.9,30.64,WSW,246,0.0,0.0,83,0.00,CLR,,0.00,WeatherDisplay:10.37,2013-01-01 11:39:00,
2013-01-01 03:44:00,12.1,7.9,30.64,WSW,246,0.0,0.0,83,0.00,CLR,,0.00,WeatherDisplay:10.37,2013-01-01 11:44:00,
2013-01-01 03:49:00,12.3,7.9,30.64,WSW,246,0.0,0.0,82,0.00,CLR,,0.00,WeatherDisplay:10.37,2013-01-01 11:49:00,
2013-01-01 03:54:00,12.4,8.0,30.64,WSW,246,0.0,0.0,82,0.00,CLR,,0.00,WeatherDisplay:10.37,2013-01-01 11:54:00,
2013-01-01 03:59:00,12.4,8.0,30.63,WSW,246,0.0,0.0,82,0.00,CLR,,0.00,WeatherDisplay:10.37,2013-01-01 11:59:00,
2013-01-01 04:04:00,12.6,8.1,30.64,WSW,246,0.0,0.0,82,0.00,CLR,,0.00,WeatherDisplay:10.37,2013-01-01 12:04:00,
2013-01-01 04:09:00,12.6,8.1,30.65,WSW,244,0.0,0.0,82,0.00,CLR,,0.00,WeatherDisplay:10.37,2013-01-01 12:09:00,
2013-01-01 04:14:00,12.8,8.3,30.65,WSW,246,0.0,0.0,82,0.00,CLR,,0.00,WeatherDisplay:10.37,2013-01-01 12:14:00,
2013-01-01 04:19:00,12.8,8.3,30.65,WSW,246,0.0,0.0,82,0.00,CLR,,0.00,WeatherDisplay:10.37,2013-01-01 12:19:00,
2013-01-01 04:24:00,12.9,8.4,30.65,WSW,246,0.0,0.0,82,0.00,CLR,,0.00,WeatherDisplay:10.37,2013-01-01 12:24:00,
2013-01-01 04:29:00,13.1,8.6,30.65,South,175,2.3,2.3,82,0.00,CLR,,0.00,WeatherDisplay:10.37,2013-01-01 12:29:00,
2013-01-01 04:34:00,13.1,8.6,30.63,SE,140,4.6,4.6,82,0.00,CLR,,0.00,WeatherDisplay:10.37,2013-01-01 12:34:00,
2013-01-01 04:39:00,13.3,8.8,30.65,SE,140,0.0,0.0,82,0.00,CLR,,0.00,WeatherDisplay:10.37,2013-01-01 12:39:00,
2013-01-01 04:44:00,13.5,9.3,30.64,SE,140,2.3,2.3,83,0.00,CLR,,0.00,WeatherDisplay:10.37,2013-01-01 12:44:00,
2013-01-01 04:49:00,13.6,9.4,30.64,SE,140,0.0,0.0,83,0.00,CLR,,0.00,WeatherDisplay:10.37,2013-01-01 12:49:00,
2013-01-01 04:54:00,13.8,9.6,30.64,SE,140,1.0,1.0,83,0.00,CLR,,0.00,WeatherDisplay:10.37,2013-01-01 12:54:00,
2013-01-01 04:59:00,14.0,9.8,30.64,SE,140,0.0,0.0,83,0.00,CLR,,0.00,WeatherDisplay:10.37,2013-01-01 12:59:00,
2013-01-01 05:04:00,14.1,9.9,30.65,SE,140,0.0,0.0,83,0.00,CLR,,0.00,WeatherDisplay:10.37,2013-01-01 13:04:00,
2013-01-01 05:09:00,14.3,10.1,30.66,SE,140,0.0,0.0,83,0.00,CLR,,0.00,WeatherDisplay:10.37,2013-01-01 13:09:00,
2013-01-01 05:14:00,14.4,10.2,30.66,SE,140,0.0,0.0,83,0.00,CLR,,0.00,WeatherDisplay:10.37,2013-01-01 13:14:00,
2013-01-01 05:19:00,14.4,10.2,30.66,SE,140,0.0,0.0,83,0.00,CLR,,0.00,WeatherDisplay:10.37,2013-01-01 13:19:00,
2013-01-01 05:24:00,14.4,10.2,30.65,SE,140,1.1,0.0,83,0.00,CLR,,0.00,WeatherDisplay:10.37,2013-01-01 13:24:00,
2013-01-01 05:29:00,14.6,10.4,30.64,SE,140,2.3,2.3,83,0.00,CLR,,0.00,WeatherDisplay:10.37,2013-01-01 13:29:00,
2013-01-01 05:34:00,14.6,10.4,30.64,SE,140,1.1,0.0,83,0.00,CLR,,0.00,WeatherDisplay:10.37,2013-01-01 13:34:00,
2013-01-01 05:39:00,14.8,10.6,30.64,SE,140,2.3,2.3,83,0.00,CLR,,0.00,WeatherDisplay:10.37,2013-01-01 13:39:00,
2013-01-01 05:44:00,14.8,10.6,30.64,SE,140,1.1,1.1,83,0.00,CLR,,0.00,WeatherDisplay:10.37,2013-01-01 13:44:00,
2013-01-01 05:49:00,14.9,10.7,30.64,SE,140,0.0,0.0,83,0.00,CLR,,0.00,WeatherDisplay:10.37,2013-01-01 13:49:00,
2013-01-01 05:54:00,14.9,10.7,30.65,SE,140,2.0,2.0,83,0.00,CLR,,0.00,WeatherDisplay:10.37,2013-01-01 13:54:00,
2013-01-01 05:59:00,15.1,10.9,30.64,SE,140,1.1,0.0,83,0.00,CLR,,0.00,WeatherDisplay:10.37,2013-01-01 13:59:00,
2013-01-01 06:04:00,15.1,10.9,30.65,SE,140,1.1,1.1,83,0.00,CLR,,0.00,WeatherDisplay:10.37,2013-01-01 14:04:00,
2013-01-01 06:09:00,14.9,10.7,30.66,SE,140,0.0,0.0,83,0.00,CLR,,0.00,WeatherDisplay:10.37,2013-01-01 14:09:00,
2013-01-01 06:14:00,14.8,10.6,30.66,SE,140,1.1,0.0,83,0.00,CLR,,0.00,WeatherDisplay:10.37,2013-01-01 14:14:00,
2013-01-01 06:19:00,14.8,10.6,30.66,SE,140,2.3,2.3,83,0.00,CLR,,0.00,WeatherDisplay:10.37,2013-01-01 14:19:00,
2013-01-01 06:24:00,14.6,10.4,30.66,SE,140,2.3,2.3,83,0.00,CLR,,0.00,WeatherDisplay:10.37,2013-01-01 14:24:00,
2013-01-01 06:29:00,14.4,10.2,30.66,SE,140,2.3,2.3,83,0.00,CLR,,0.00,WeatherDisplay:10.37,2013-01-01 14:29:00,
2013-01-01 06:34:00,14.4,10.2,30.67,SE,140,2.3,2.3,83,0.00,CLR,,0.00,WeatherDisplay:10.37,2013-01-01 14:34:00,
2013-01-01 06:39:00,14.3,10.1,30.67,SE,140,2.3,2.3,83,0.00,CLR,,0.00,WeatherDisplay:10.37,2013-01-01 14:39:00,
2013-01-01 06:44:00,14.1,9.9,30.67,SE,140,2.3,0.0,83,0.00,CLR,,0.00,WeatherDisplay:10.37,2013-01-01 14:44:00,
2013-01-01 06:49:00,14.1,9.9,30.66,SE,140,3.5,3.5,83,0.00,CLR,,0.00,WeatherDisplay:10.37,2013-01-01 14:49:00,
2013-01-01 06:54:00,14.1,9.6,30.67,ESE,102,3.5,3.5,82,0.00,CLR,,0.00,WeatherDisplay:10.37,2013-01-01 14:54:00,
2013-01-01 06:59:00,14.0,9.5,30.67,ESE,102,2.3,2.3,82,0.00,CLR,,0.00,WeatherDisplay:10.37,2013-01-01 14:59:00,
2013-01-01 07:04:00,14.0,9.5,30.68,ESE,102,2.3,0.0,82,0.00,CLR,,0.00,WeatherDisplay:10.37,2013-01-01 15:04:00,
2013-01-01 07:09:00,14.0,9.5,30.68,ESE,102,2.3,2.3,82,0.00,CLR,,0.00,WeatherDisplay:10.37,2013-01-01 15:09:00,
2013-01-01 07:14:00,14.0,9.5,30.68,ESE,102,3.5,3.5,82,0.00,CLR,,0.00,WeatherDisplay:10.37,2013-01-01 15:14:00,
2013-01-01 07:19:00,14.0,9.5,30.67,ESE,102,3.0,3.0,82,0.00,CLR,,0.00,WeatherDisplay:10.37,2013-01-01 15:19:00,
2013-01-01 07:24:00,14.0,9.5,30.67,ESE,102,2.3,2.3,82,0.00,CLR,,0.00,WeatherDisplay:10.37,2013-01-01 15:24:00,
2013-01-01 07:29:00,14.0,9.5,30.67,ESE,102,0.0,0.0,82,0.00,CLR,,0.00,WeatherDisplay:10.37,2013-01-01 15:29:00,
2013-01-01 07:34:00,14.1,9.6,30.68,ESE,102,0.0,0.0,82,0.00,CLR,,0.00,WeatherDisplay:10.37,2013-01-01 15:34:00,
2013-01-01 07:40:00,14.1,9.6,30.68,ESE,102,2.3,2.3,82,0.00,CLR,,0.00,WeatherDisplay:10.37,2013-01-01 15:40:00,
2013-01-01 07:45:00,14.0,9.5,30.67,ESE,102,1.1,1.1,82,0.00,CLR,,0.00,WeatherDisplay:10.37,2013-01-01 15:45:00,
2013-01-01 07:50:00,14.1,9.6,30.68,ESE,102,0.0,0.0,82,0.00,CLR,,0.00,WeatherDisplay:10.37,2013-01-01 15:50:00,
2013-01-01 07:55:00,14.1,9.6,30.68,ESE,102,1.1,1.1,82,0.00,CLR,,0.00,WeatherDisplay:10.37,2013-01-01 15:55:00,
2013-01-01 08:00:00,14.3,9.8,30.68,ESE,102,1.1,1.1,82,0.00,CLR,,0.00,WeatherDisplay:10.37,2013-01-01 16:00:00,
2013-01-01 08:05:00,14.3,9.8,30.69,ESE,102,2.3,2.3,82,0.00,CLR,,0.00,WeatherDisplay:10.37,2013-01-01 16:05:00,
2013-01-01 08:10:00,14.3,9.8,30.69,ESE,102,2.3,2.3,82,0.00,CLR,,0.00,WeatherDisplay:10.37,2013-01-01 16:10:00,
2013-01-01 08:15:00,14.3,9.8,30.69,ESE,102,2.3,2.3,82,0.00,CLR,,0.00,WeatherDisplay:10.37,2013-01-01 16:15:00,
2013-01-01 08:20:00,14.4,10.2,30.69,ESE,102,3.5,3.5,83,0.00,CLR,,0.00,WeatherDisplay:10.37,2013-01-01 16:20:00,
2013-01-01 08:25:00,14.4,10.2,30.69,ESE,102,1.1,0.0,83,0.00,CLR,,0.00,WeatherDisplay:10.37,2013-01-01 16:25:00,
2013-01-01 08:30:00,14.4,9.9,30.69,ESE,102,3.5,3.5,82,0.00,CLR,,0.00,WeatherDisplay:10.37,2013-01-01 16:30:00,
2013-01-01 08:35:00,14.4,10.2,30.69,ESE,102,0.0,0.0,83,0.00,CLR,,0.00,WeatherDisplay:10.37,2013-01-01 16:35:00,
2013-01-01 08:40:00,14.4,9.9,30.70,ESE,102,2.3,2.3,82,0.00,CLR,,0.00,WeatherDisplay:10.37,2013-01-01 16:40:00,
2013-01-01 08:45:00,14.1,9.6,30.70,ESE,102,3.5,3.5,82,0.00,CLR,,0.00,WeatherDisplay:10.37,2013-01-01 16:45:00,
2013-01-01 08:50:00,13.6,9.1,30.70,ESE,102,1.1,0.0,82,0.00,CLR,,0.00,WeatherDisplay:10.37,2013-01-01 16:50:00,
2013-01-01 08:55:00,13.5,9.0,30.70,ESE,102,2.3,2.3,82,0.00,CLR,,0.00,WeatherDisplay:10.37,2013-01-01 16:55:00,
2013-01-01 09:00:00,13.8,9.3,30.71,ESE,102,1.0,1.0,82,0.00,CLR,,0.00,WeatherDisplay:10.37,2013-01-01 17:00:00,
2013-01-01 09:05:00,14.9,10.7,30.71,ESE,102,2.0,2.0,83,0.00,CLR,,0.00,WeatherDisplay:10.37,2013-01-01 17:05:00,
2013-01-01 09:10:00,14.9,10.4,30.71,East,95,3.5,3.5,82,0.00,CLR,,0.00,WeatherDisplay:10.37,2013-01-01 17:10:00,
2013-01-01 09:15:00,14.8,10.3,30.72,East,95,2.0,2.0,82,0.00,CLR,,0.00,WeatherDisplay:10.37,2013-01-01 17:15:00,
2013-01-01 09:20:00,14.4,9.6,30.72,East,92,5.0,5.0,81,0.00,CLR,,0.00,WeatherDisplay:10.37,2013-01-01 17:20:00,
2013-01-01 09:25:00,14.0,9.2,30.72,East,92,3.0,3.0,81,0.00,CLR,,0.00,WeatherDisplay:10.37,2013-01-01 17:25:00,
2013-01-01 09:30:00,13.8,9.0,30.72,East,92,3.5,3.5,81,0.00,CLR,,0.00,WeatherDisplay:10.37,2013-01-01 17:30:00,
2013-01-01 09:35:00,13.8,9.3,30.72,East,92,2.3,2.3,82,0.00,CLR,,0.00,WeatherDisplay:10.37,2013-01-01 17:35:00,
2013-01-01 09:40:00,14.0,9.5,30.72,East,92,3.5,3.5,82,0.00,CLR,,0.00,WeatherDisplay:10.37,2013-01-01 17:40:00,
2013-01-01 09:45:00,14.0,9.5,30.72,East,92,2.3,2.3,82,0.00,CLR,,0.00,WeatherDisplay:10.37,2013-01-01 17:45:00,
2013-01-01 09:50:00,14.6,10.1,30.73,East,89,6.0,6.0,82,0.00,CLR,,0.00,WeatherDisplay:10.37,2013-01-01 17:50:00,
2013-01-01 09:55:00,15.2,10.7,30.73,East,90,5.8,5.8,82,0.00,CLR,,0.00,WeatherDisplay:10.37,2013-01-01 17:55:00,
2013-01-01 10:00:00,15.2,10.4,30.73,East,96,5.8,5.8,81,0.00,CLR,,0.00,WeatherDisplay:10.37,2013-01-01 18:00:00,
2013-01-01 10:05:00,15.2,10.1,30.73,ESE,116,6.0,6.0,80,0.00,CLR,,0.00,WeatherDisplay:10.37,2013-01-01 18:05:00,
2013-01-01 10:10:00,15.2,10.1,30.73,SE,134,7.0,7.0,80,0.00,CLR,,0.00,WeatherDisplay:10.37,2013-01-01 18:10:00,
2013-01-01 10:15:00,15.1,9.8,30.74,ENE,61,6.0,6.0,79,0.00,CLR,,0.00,WeatherDisplay:10.37,2013-01-01 18:15:00,
2013-01-01 10:20:00,14.9,9.8,30.75,East,85,4.6,4.6,80,0.00,CLR,,0.00,WeatherDisplay:10.37,2013-01-01 18:20:00,
2013-01-01 10:25:00,15.4,10.3,30.75,East,85,3.5,3.5,80,0.00,CLR,,0.00,WeatherDisplay:10.37,2013-01-01 18:25:00,
2013-01-01 10:30:00,15.2,9.9,30.76,North,353,5.0,5.0,79,0.00,CLR,,0.00,WeatherDisplay:10.37,2013-01-01 18:30:00,
2013-01-01 10:35:00,14.9,9.8,30.76,NNE,21,5.0,5.0,80,0.00,CLR,,0.00,WeatherDisplay:10.37,2013-01-01 18:35:00,
2013-01-01 10:40:00,14.8,9.5,30.76,NE,44,6.0,6.0,79,0.00,CLR,,0.00,WeatherDisplay:10.37,2013-01-01 18:40:00,
2013-01-01 10:45:00,15.2,10.1,30.76,NE,45,3.5,3.5,80,0.00,CLR,,0.00,WeatherDisplay:10.37,2013-01-01 18:45:00,
2013-01-01 10:50:00,15.7,10.6,30.76,East,93,3.5,3.5,80,0.00,CLR,,0.00,WeatherDisplay:10.37,2013-01-01 18:50:00,
2013-01-01 10:55:00,16.2,11.1,30.75,East,92,3.5,3.5,80,0.00,CLR,,0.00,WeatherDisplay:10.37,2013-01-01 18:55:00,
2013-01-01 11:00:00,16.7,11.3,30.74,East,92,4.6,4.6,79,0.00,CLR,,0.00,WeatherDisplay:10.37,2013-01-01 19:00:00,
2013-01-01 11:05:00,17.2,11.5,30.75,East,92,3.5,3.5,78,0.00,CLR,,0.00,WeatherDisplay:10.37,2013-01-01 19:05:00,
2013-01-01 11:10:00,17.5,11.5,30.74,East,92,4.6,4.6,77,0.00,CLR,,0.00,WeatherDisplay:10.37,2013-01-01 19:10:00,
2013-01-01 11:15:00,18.4,12.1,30.74,East,92,4.6,4.6,76,0.00,CLR,,0.00,WeatherDisplay:10.37,2013-01-01 19:15:00,
2013-01-01 11:20:00,19.2,12.3,30.73,ESE,103,3.5,3.5,74,0.00,CLR,,0.00,WeatherDisplay:10.37,2013-01-01 19:20:00,
2013-01-01 11:25:00,19.9,12.3,30.72,ESE,117,5.0,5.0,72,0.00,CLR,,0.00,WeatherDisplay:10.37,2013-01-01 19:25:00,
2013-01-01 11:30:00,20.5,12.6,30.72,ESE,112,3.5,3.5,71,0.00,CLR,,0.00,WeatherDisplay:10.37,2013-01-01 19:30:00,
2013-01-01 11:35:00,20.8,12.2,30.72,ESE,103,4.6,4.6,69,0.00,CLR,,0.00,WeatherDisplay:10.37,2013-01-01 19:35:00,
2013-01-01 11:40:00,21.3,12.0,30.71,East,89,4.6,4.6,67,0.01,RA,,0.01,WeatherDisplay:10.37,2013-01-01 19:40:00,
2013-01-01 11:45:00,21.4,11.1,30.71,SE,145,7.0,7.0,64,0.01,RA,,0.01,WeatherDisplay:10.37,2013-01-01 19:45:00,
2013-01-01 11:50:00,21.6,11.3,30.69,SE,143,4.6,4.6,64,0.01,,,0.01,WeatherDisplay:10.37,2013-01-01 19:50:00,
2013-01-01 11:55:00,22.1,11.1,30.69,SSE,154,5.8,5.8,62,0.01,CLR,,0.01,WeatherDisplay:10.37,2013-01-01 19:55:00,
2013-01-01 12:00:00,22.7,11.6,30.69,SSE,154,3.5,0.0,62,0.01,CLR,,0.01,WeatherDisplay:10.37,2013-01-01 20:00:00,
2013-01-01 12:05:00,23.8,12.3,30.67,SSE,154,3.5,0.0,61,0.01,CLR,,0.01,WeatherDisplay:10.37,2013-01-01 20:05:00,
2013-01-01 12:10:00,24.4,11.7,30.68,SSE,154,4.0,4.0,58,0.01,CLR,,0.01,WeatherDisplay:10.37,2013-01-01 20:10:00,
2013-01-01 12:15:00,25.0,12.3,30.66,SSE,154,2.3,0.0,58,0.01,CLR,,0.01,WeatherDisplay:10.37,2013-01-01 20:15:00,
2013-01-01 12:20:00,25.4,12.7,30.66,ESE,123,6.9,6.9,58,0.01,CLR,,0.01,WeatherDisplay:10.37,2013-01-01 20:20:00,
2013-01-01 12:25:00,25.7,12.2,30.65,ESE,109,3.5,3.5,56,0.01,CLR,,0.01,WeatherDisplay:10.37,2013-01-01 20:25:00,
2013-01-01 12:30:00,26.1,12.1,30.65,ESE,109,2.3,2.3,55,0.01,CLR,,0.01,WeatherDisplay:10.37,2013-01-01 20:30:00,
2013-01-01 12:35:00,26.0,12.0,30.64,ESE,104,4.6,4.6,55,0.01,CLR,,0.01,WeatherDisplay:10.37,2013-01-01 20:35:00,
2013-01-01 12:40:00,26.3,12.3,30.64,ENE,71,7.0,7.0,55,0.00,CLR,,0.01,WeatherDisplay:10.37,2013-01-01 20:40:00,
2013-01-01 12:45:00,26.1,11.7,30.63,East,100,7.0,7.0,54,0.00,CLR,,0.01,WeatherDisplay:10.37,2013-01-01 20:45:00,
2013-01-01 12:50:00,26.7,12.7,30.62,East,88,5.8,5.8,55,0.00,CLR,,0.01,WeatherDisplay:10.37,2013-01-01 20:50:00,
2013-01-01 12:55:00,27.4,12.9,30.62,East,90,0.0,3.0,54,0.00,CLR,,0.01,WeatherDisplay:10.37,2013-01-01 20:55:00,
2013-01-01 13:00:00,27.7,12.8,30.62,East,90,3.0,6.0,53,0.00,RA,,0.02,WeatherDisplay:10.37,2013-01-01 21:00:00,
2013-01-01 13:06:00,28.2,12.8,30.61,ESE,113,6.0,6.0,52,0.01,RA,,0.02,WeatherDisplay:10.37,2013-01-01 21:06:00,
2013-01-01 13:11:00,28.5,13.1,30.60,ESE,112,5.8,5.8,52,0.01,,,0.02,WeatherDisplay:10.37,2013-01-01 21:11:00,
2013-01-01 13:16:00,28.5,13.1,30.59,East,93,8.1,8.1,52,0.01,CLR,,0.02,WeatherDisplay:10.37,2013-01-01 21:16:00,
2013-01-01 13:21:00,29.0,13.1,30.59,East,80,4.6,4.6,51,0.01,CLR,,0.02,WeatherDisplay:10.37,2013-01-01 21:21:00,
2013-01-01 13:26:00,29.5,13.6,30.58,ESE,119,3.5,3.5,51,0.01,CLR,,0.02,WeatherDisplay:10.37,2013-01-01 21:26:00,
2013-01-01 13:31:00,30.4,14.0,30.58,ESE,110,3.5,3.5,50,0.01,CLR,,0.02,WeatherDisplay:10.37,2013-01-01 21:31:00,
2013-01-01 13:36:00,30.9,14.0,30.58,ESE,113,3.5,3.5,49,0.01,CLR,,0.02,WeatherDisplay:10.37,2013-01-01 21:36:00,
2013-01-01 13:41:00,30.6,13.7,30.58,ESE,106,8.1,8.1,49,0.01,CLR,,0.02,WeatherDisplay:10.37,2013-01-01 21:41:00,
2013-01-01 13:46:00,30.9,14.4,30.57,East,88,6.9,6.9,50,0.01,CLR,,0.02,WeatherDisplay:10.37,2013-01-01 21:46:00,
2013-01-01 13:51:00,31.3,14.3,30.57,ESE,102,5.8,5.8,49,0.01,CLR,,0.02,WeatherDisplay:10.37,2013-01-01 21:51:00,
2013-01-01 13:56:00,31.3,14.3,30.57,ENE,72,5.8,5.8,49,0.01,CLR,,0.02,WeatherDisplay:10.37,2013-01-01 21:56:00,
2013-01-01 14:01:00,31.0,14.5,30.57,East,97,4.6,4.6,50,0.00,CLR,,0.02,WeatherDisplay:10.37,2013-01-01 22:01:00,
2013-01-01 14:06:00,30.3,14.3,30.58,East,86,5.8,5.8,51,0.00,CLR,,0.02,WeatherDisplay:10.37,2013-01-01 22:06:00,
2013-01-01 14:11:00,30.0,14.5,30.58,NE,54,7.0,7.0,52,0.00,CLR,,0.02,WeatherDisplay:10.37,2013-01-01 22:11:00,
2013-01-01 14:16:00,30.0,14.5,30.58,East,96,5.8,5.8,52,0.00,CLR,,0.02,WeatherDisplay:10.37,2013-01-01 22:16:00,
2013-01-01 14:21:00,30.0,14.5,30.58,East,83,5.8,5.8,52,0.00,CLR,,0.02,WeatherDisplay:10.37,2013-01-01 22:21:00,
2013-01-01 14:26:00,29.8,14.7,30.58,East,92,5.8,5.8,53,0.00,CLR,,0.02,WeatherDisplay:10.37,2013-01-01 22:26:00,
2013-01-01 14:31:00,30.1,15.0,30.58,East,82,3.5,3.5,53,0.00,CLR,,0.02,WeatherDisplay:10.37,2013-01-01 22:31:00,
2013-01-01 14:36:00,30.4,14.9,30.58,East,85,2.3,2.3,52,0.00,CLR,,0.02,WeatherDisplay:10.37,2013-01-01 22:36:00,
2013-01-01 14:41:00,30.6,14.6,30.58,East,83,5.8,5.8,51,0.00,CLR,,0.02,WeatherDisplay:10.37,2013-01-01 22:41:00,
2013-01-01 14:46:00,30.9,14.9,30.58,East,83,3.5,3.5,51,0.01,RA,,0.03,WeatherDisplay:10.37,2013-01-01 22:46:00,
2013-01-01 14:51:00,30.6,14.1,30.57,East,82,6.0,6.0,50,0.01,RA,,0.03,WeatherDisplay:10.37,2013-01-01 22:51:00,
2013-01-01 14:56:00,30.4,14.4,30.58,ENE,78,3.5,3.5,51,0.01,CLR,,0.03,WeatherDisplay:10.37,2013-01-01 22:56:00,
2013-01-01 15:01:00,30.4,14.4,30.58,NE,45,6.0,6.0,51,0.01,CLR,,0.03,WeatherDisplay:10.37,2013-01-01 23:01:00,
2013-01-01 15:06:00,30.4,14.4,30.58,NE,51,2.3,2.3,51,0.01,CLR,,0.03,WeatherDisplay:10.37,2013-01-01 23:06:00,
2013-01-01 15:11:00,30.4,14.0,30.58,ENE,68,3.5,3.5,50,0.01,CLR,,0.03,WeatherDisplay:10.37,2013-01-01 23:11:00,
2013-01-01 15:16:00,30.4,14.0,30.57,East,96,6.0,6.0,50,0.01,CLR,,0.03,WeatherDisplay:10.37,2013-01-01 23:16:00,
2013-01-01 15:21:00,30.4,14.0,30.58,East,95,3.5,3.5,50,0.01,CLR,,0.03,WeatherDisplay:10.37,2013-01-01 23:21:00,
2013-01-01 15:26:00,30.6,14.1,30.58,East,95,3.0,3.0,50,0.01,CLR,,0.03,WeatherDisplay:10.37,2013-01-01 23:26:00,
2013-01-01 15:31:00,30.7,14.2,30.58,East,95,3.0,3.0,50,0.01,CLR,,0.03,WeatherDisplay:10.37,2013-01-01 23:31:00,
2013-01-01 15:36:00,30.9,14.4,30.58,East,95,1.1,0.0,50,0.01,CLR,,0.03,WeatherDisplay:10.37,2013-01-01 23:36:00,
2013-01-01 15:41:00,30.9,14.4,30.58,East,95,2.3,2.3,50,0.01,CLR,,0.03,WeatherDisplay:10.37,2013-01-01 23:41:00,
2013-01-01 15:46:00,30.7,14.2,30.57,East,95,2.3,2.3,50,0.00,CLR,,0.03,WeatherDisplay:10.37,2013-01-01 23:46:00,
2013-01-01 15:51:00,30.7,14.2,30.58,East,95,2.3,0.0,50,0.00,CLR,,0.03,WeatherDisplay:10.37,2013-01-01 23:51:00,
2013-01-01 15:56:00,30.7,14.2,30.58,East,95,1.1,1.1,50,0.00,CLR,,0.03,WeatherDisplay:10.37,2013-01-01 23:56:00,
2013-01-01 16:01:00,30.7,14.2,30.57,East,95,3.0,3.0,50,0.00,CLR,,0.03,WeatherDisplay:10.37,2013-01-02 00:01:00,
2013-01-01 16:06:00,29.8,14.3,30.58,NW,326,10.4,10.4,52,0.00,CLR,,0.03,WeatherDisplay:10.37,2013-01-02 00:06:00,
2013-01-01 16:11:00,27.8,14.5,30.59,NW,323,6.0,6.0,57,0.00,CLR,,0.03,WeatherDisplay:10.37,2013-01-02 00:11:00,
2013-01-01 16:16:00,26.3,14.3,30.60,NW,319,6.0,6.0,60,0.00,CLR,,0.03,WeatherDisplay:10.37,2013-01-02 00:16:00,
2013-01-01 16:21:00,25.3,14.1,30.61,NW,320,6.9,6.9,62,0.00,CLR,,0.03,WeatherDisplay:10.37,2013-01-02 00:21:00,
2013-01-01 16:26:00,24.5,13.7,30.61,NNW,336,7.0,7.0,63,0.00,CLR,,0.03,WeatherDisplay:10.37,2013-01-02 00:26:00,
2013-01-01 16:31:00,24.2,13.8,30.62,NW,325,6.0,6.0,64,0.00,CLR,,0.03,WeatherDisplay:10.37,2013-01-02 00:31:00,
2013-01-01 16:36:00,23.8,13.7,30.62,NW,326,5.0,5.0,65,0.00,CLR,,0.03,WeatherDisplay:10.37,2013-01-02 00:36:00,
2013-01-01 16:41:00,23.6,13.5,30.62,NW,326,5.8,5.8,65,0.00,CLR,,0.03,WeatherDisplay:10.37,2013-01-02 00:41:00,
2013-01-01 16:46:00,23.3,13.6,30.63,NW,323,3.5,3.5,66,0.00,CLR,,0.03,WeatherDisplay:10.37,2013-01-02 00:46:00,
2013-01-01 16:51:00,23.0,13.3,30.63,NNW,340,5.8,5.8,66,0.00,CLR,,0.03,WeatherDisplay:10.37,2013-01-02 00:51:00,
2013-01-01 16:56:00,22.5,13.2,30.63,NW,325,4.0,4.0,67,0.00,CLR,,0.03,WeatherDisplay:10.37,2013-01-02 00:56:00,
2013-01-01 17:01:00,22.2,12.9,30.64,North,349,4.6,4.6,67,0.00,CLR,,0.03,WeatherDisplay:10.37,2013-01-02 01:01:00,
2013-01-01 17:06:00,21.9,13.0,30.64,North,0,4.6,4.6,68,0.00,CLR,,0.03,WeatherDisplay:10.37,2013-01-02 01:06:00,
2013-01-01 17:11:00,21.1,12.5,30.64,NNW,339,6.0,6.0,69,0.00,CLR,,0.03,WeatherDisplay:10.37,2013-01-02 01:11:00,
2013-01-01 17:16:00,20.6,12.7,30.65,NNW,328,5.8,5.8,71,0.00,CLR,,0.03,WeatherDisplay:10.37,2013-01-02 01:16:00,
2013-01-01 17:21:00,20.2,12.6,30.66,NNW,336,4.6,4.6,72,0.00,CLR,,0.03,WeatherDisplay:10.37,2013-01-02 01:21:00,
2013-01-01 17:26:00,19.7,12.4,30.66,NNW,335,6.0,6.0,73,0.00,CLR,,0.03,WeatherDisplay:10.37,2013-01-02 01:26:00,
2013-01-01 17:31:00,19.2,12.3,30.66,NNW,329,8.1,8.1,74,0.00,CLR,,0.03,WeatherDisplay:10.37,2013-01-02 01:31:00,
2013-01-01 17:36:00,18.8,12.2,30.66,NNW,343,8.1,8.1,75,0.00,CLR,,0.03,WeatherDisplay:10.37,2013-01-02 01:36:00,
2013-01-01 17:41:00,18.1,11.8,30.67,NW,311,8.0,8.0,76,0.00,CLR,,0.03,WeatherDisplay:10.37,2013-01-02 01:41:00,
2013-01-01 17:46:00,17.8,11.8,30.67,North,3,7.0,7.0,77,0.00,CLR,,0.03,WeatherDisplay:10.37,2013-01-02 01:46:00,
2013-01-01 17:51:00,17.5,11.5,30.67,North,0,5.0,5.0,77,0.00,CLR,,0.03,WeatherDisplay:10.37,2013-01-02 01:51:00,
2013-01-01 17:56:00,17.2,11.5,30.68,NNW,339,3.5,3.5,78,0.00,CLR,,0.03,WeatherDisplay:10.37,2013-01-02 01:56:00,
2013-01-01 18:01:00,16.9,11.2,30.68,NNW,339,3.5,3.5,78,0.00,CLR,,0.03,WeatherDisplay:10.37,2013-01-02 02:01:00,
2013-01-01 18:06:00,16.7,11.3,30.69,NNW,339,3.0,3.0,79,0.00,CLR,,0.03,WeatherDisplay:10.37,2013-01-02 02:06:00,
2013-01-01 18:11:00,16.4,11.0,30.69,NW,308,3.0,3.0,79,0.00,CLR,,0.03,WeatherDisplay:10.37,2013-01-02 02:11:00,
2013-01-01 18:16:00,16.1,11.0,30.69,NW,308,3.5,3.5,80,0.00,CLR,,0.03,WeatherDisplay:10.37,2013-01-02 02:16:00,
2013-01-01 18:21:00,15.9,10.8,30.69,NNW,329,3.0,3.0,80,0.00,CLR,,0.03,WeatherDisplay:10.37,2013-01-02 02:21:00,
2013-01-01 18:26:00,15.6,10.8,30.69,NNW,328,3.5,3.5,81,0.00,CLR,,0.03,WeatherDisplay:10.37,2013-01-02 02:26:00,
2013-01-01 18:31:00,15.4,10.6,30.70,NW,326,3.5,3.5,81,0.00,CLR,,0.03,WeatherDisplay:10.37,2013-01-02 02:31:00,
2013-01-01 18:36:00,15.1,10.6,30.71,NNW,328,2.3,2.3,82,0.00,CLR,,0.03,WeatherDisplay:10.37,2013-01-02 02:36:00,
2013-01-01 18:41:00,14.9,10.4,30.71,NNW,328,0.0,0.0,82,0.00,CLR,,0.03,WeatherDisplay:10.37,2013-01-02 02:41:00,
2013-01-01 18:46:00,14.8,10.3,30.70,NNW,328,0.0,0.0,82,0.00,CLR,,0.03,WeatherDisplay:10.37,2013-01-02 02:46:00,
2013-01-01 18:51:00,14.3,9.8,30.70,NNW,328,0.0,0.0,82,0.00,CLR,,0.03,WeatherDisplay:10.37,2013-01-02 02:51:00,
2013-01-01 18:56:00,13.8,9.3,30.70,NW,326,0.0,0.0,82,0.00,CLR,,0.03,WeatherDisplay:10.37,2013-01-02 02:56:00,
2013-01-01 19:01:00,13.6,9.1,30.70,NNW,328,1.0,1.0,82,0.00,CLR,,0.03,WeatherDisplay:10.37,2013-01-02 03:01:00,
2013-01-01 19:06:00,13.5,9.0,30.70,NNW,328,0.0,0.0,82,0.00,CLR,,0.03,WeatherDisplay:10.37,2013-01-02 03:06:00,
2013-01-01 19:11:00,13.5,9.3,30.70,NW,326,0.0,0.0,83,0.00,CLR,,0.03,WeatherDisplay:10.37,2013-01-02 03:11:00,
2013-01-01 19:16:00,12.9,8.4,30.71,NNW,328,0.0,0.0,82,0.00,CLR,,0.03,WeatherDisplay:10.37,2013-01-02 03:16:00,
2013-01-01 19:21:00,12.9,8.7,30.71,NNW,328,0.0,0.0,83,0.00,CLR,,0.03,WeatherDisplay:10.37,2013-01-02 03:21:00,
2013-01-01 19:26:00,12.9,8.7,30.71,NW,326,0.0,0.0,83,0.00,CLR,,0.03,WeatherDisplay:10.37,2013-01-02 03:26:00,
2013-01-01 19:31:00,12.8,8.6,30.71,NW,326,0.0,0.0,83,0.00,CLR,,0.03,WeatherDisplay:10.37,2013-01-02 03:31:00,
2013-01-01 19:36:00,12.6,8.4,30.71,NNW,328,0.0,0.0,83,0.00,CLR,,0.03,WeatherDisplay:10.37,2013-01-02 03:36:00,
2013-01-01 19:41:00,12.4,8.2,30.71,NW,326,0.0,0.0,83,0.00,CLR,,0.03,WeatherDisplay:10.37,2013-01-02 03:41:00,
2013-01-01 19:46:00,12.1,7.7,30.71,NW,326,0.0,0.0,82,0.00,CLR,,0.03,WeatherDisplay:10.37,2013-01-02 03:46:00,
2013-01-01 19:51:00,11.9,7.5,30.71,NNW,328,2.3,2.3,82,0.00,CLR,,0.03,WeatherDisplay:10.37,2013-01-02 03:51:00,
2013-01-01 19:56:00,11.6,7.2,30.71,NNW,328,1.1,1.1,82,0.00,CLR,,0.03,WeatherDisplay:10.37,2013-01-02 03:56:00,
2013-01-01 20:01:00,11.4,7.0,30.72,NW,326,2.3,2.3,82,0.00,CLR,,0.03,WeatherDisplay:10.37,2013-01-02 04:01:00,
2013-01-01 20:06:00,11.2,6.8,30.72,NNW,328,2.3,2.3,82,0.00,CLR,,0.03,WeatherDisplay:10.37,2013-01-02 04:06:00,
2013-01-01 20:11:00,11.1,6.7,30.72,NNW,328,2.3,2.3,82,0.00,CLR,,0.03,WeatherDisplay:10.37,2013-01-02 04:11:00,
2013-01-01 20:16:00,11.1,6.7,30.72,NW,326,0.0,0.0,82,0.00,CLR,,0.03,WeatherDisplay:10.37,2013-01-02 04:16:00,
2013-01-01 20:21:00,11.1,6.7,30.72,NNW,328,2.3,2.3,82,0.00,CLR,,0.03,WeatherDisplay:10.37,2013-01-02 04:21:00,
2013-01-01 20:26:00,11.1,6.7,30.72,NNW,328,0.0,0.0,82,0.00,CLR,,0.03,WeatherDisplay:10.37,2013-01-02 04:26:00,
2013-01-01 20:31:00,10.7,6.0,30.72,NW,326,0.0,0.0,81,0.00,CLR,,0.03,WeatherDisplay:10.37,2013-01-02 04:31:00,
2013-01-01 20:36:00,10.0,5.1,30.72,NW,326,1.1,0.0,80,0.00,CLR,,0.03,WeatherDisplay:10.37,2013-01-02 04:36:00,
2013-01-01 20:41:00,9.7,4.8,30.72,NNW,328,1.1,0.0,80,0.00,CLR,,0.03,WeatherDisplay:10.37,2013-01-02 04:41:00,
2013-01-01 20:46:00,9.3,4.4,30.72,NW,326,2.3,2.3,80,0.00,CLR,,0.03,WeatherDisplay:10.37,2013-01-02 04:46:00,
2013-01-01 20:51:00,9.2,4.3,30.73,NW,326,2.3,2.3,80,0.00,CLR,,0.03,WeatherDisplay:10.37,2013-01-02 04:51:00,
2013-01-01 20:56:00,9.0,4.4,30.73,NW,326,1.1,1.1,81,0.00,CLR,,0.03,WeatherDisplay:10.37,2013-01-02 04:56:00,
2013-01-01 21:00:00,9.0,4.4,30.73,NNW,328,0.0,2.0,81,0.00,CLR,,0.03,WeatherDisplay:10.37,2013-01-02 05:00:00,
2013-01-01 21:01:00,9.0,4.6,30.72,NNW,328,2.3,2.3,82,0.00,CLR,,0.03,WeatherDisplay:10.37,2013-01-02 05:01:00,
2013-01-01 21:03:00,9.2,4.8,30.72,NNW,328,1.1,1.1,82,0.00,CLR,,0.03,WeatherDisplay:10.37,2013-01-02 05:03:00,
2013-01-01 21:08:00,9.2,5.1,30.72,NNW,328,0.0,0.0,83,0.00,CLR,,0.03,WeatherDisplay:10.37,2013-01-02 05:08:00,
2013-01-01 21:10:00,9.3,5.2,30.72,NNW,328,0.0,1.0,83,0.00,CLR,,0.03,WeatherDisplay:10.37,2013-01-02 05:10:00,
2013-01-01 21:16:00,9.5,5.4,30.72,NNW,328,1.1,1.1,83,0.00,CLR,,0.03,WeatherDisplay:10.37,2013-01-02 05:16:00,
2013-01-01 21:21:00,9.7,5.6,30.72,NW,326,0.0,0.0,83,0.00,CLR,,0.03,WeatherDisplay:10.37,2013-01-02 05:21:00,
2013-01-01 21:26:00,9.9,5.8,30.73,NW,326,0.0,0.0,83,0.00,CLR,,0.03,WeatherDisplay:10.37,2013-01-02 05:26:00,
2013-01-01 21:31:00,10.0,5.9,30.73,NNW,328,1.0,1.0,83,0.00,CLR,,0.03,WeatherDisplay:10.37,2013-01-02 05:31:00,
2013-01-01 21:36:00,10.2,6.1,30.73,NNW,328,2.3,2.3,83,0.00,CLR,,0.03,WeatherDisplay:10.37,2013-01-02 05:36:00,
2013-01-01 21:41:00,10.5,6.4,30.73,NNW,328,0.0,0.0,83,0.00,CLR,,0.03,WeatherDisplay:10.37,2013-01-02 05:41:00,
2013-01-01 21:46:00,10.7,6.6,30.73,NNW,328,0.0,0.0,83,0.00,CLR,,0.03,WeatherDisplay:10.37,2013-01-02 05:46:00,
2013-01-01 21:51:00,10.7,6.6,30.73,NNW,328,0.0,0.0,83,0.00,CLR,,0.03,WeatherDisplay:10.37,2013-01-02 05:51:00,
2013-01-01 21:56:00,10.9,6.8,30.73,NNW,328,0.0,0.0,83,0.00,CLR,,0.03,WeatherDisplay:10.37,2013-01-02 05:56:00,
2013-01-01 22:01:00,11.1,7.2,30.72,NNW,328,0.0,0.0,84,0.00,CLR,,0.03,WeatherDisplay:10.37,2013-01-02 06:01:00,
2013-01-01 22:06:00,11.4,7.5,30.72,NNW,328,1.1,1.1,84,0.00,CLR,,0.03,WeatherDisplay:10.37,2013-01-02 06:06:00,
2013-01-01 22:11:00,11.4,7.2,30.72,NW,326,2.3,2.3,83,0.00,CLR,,0.03,WeatherDisplay:10.37,2013-01-02 06:11:00,
2013-01-01 22:16:00,11.4,7.2,30.72,NNW,328,2.3,2.3,83,0.00,CLR,,0.03,WeatherDisplay:10.37,2013-01-02 06:16:00,
2013-01-01 22:21:00,11.4,7.2,30.72,NNW,328,0.0,0.0,83,0.00,CLR,,0.03,WeatherDisplay:10.37,2013-01-02 06:21:00,
2013-01-01 22:26:00,11.4,7.2,30.72,NNW,328,1.1,1.1,83,0.00,CLR,,0.03,WeatherDisplay:10.37,2013-01-02 06:26:00,
2013-01-01 22:31:00,11.2,6.8,30.72,SSW,198,2.3,2.3,82,0.00,CLR,,0.03,WeatherDisplay:10.37,2013-01-02 06:31:00,
2013-01-01 22:36:00,11.1,6.7,30.72,SSW,198,2.3,2.3,82,0.00,CLR,,0.03,WeatherDisplay:10.37,2013-01-02 06:36:00,
2013-01-01 22:41:00,10.7,6.3,30.72,SSW,198,2.3,2.3,82,0.00,CLR,,0.03,WeatherDisplay:10.37,2013-01-02 06:41:00,
2013-01-01 22:46:00,10.5,6.1,30.72,SSW,198,2.3,2.3,82,0.00,CLR,,0.03,WeatherDisplay:10.37,2013-01-02 06:46:00,
2013-01-01 22:51:00,10.4,6.0,30.73,SSW,198,1.1,1.1,82,0.00,CLR,,0.03,WeatherDisplay:10.37,2013-01-02 06:51:00,
2013-01-01 22:56:00,10.0,5.3,30.73,SSW,198,2.3,2.3,81,0.00,CLR,,0.03,WeatherDisplay:10.37,2013-01-02 06:56:00,
2013-01-01 23:01:00,9.9,5.2,30.70,SSW,198,0.0,0.0,81,0.00,CLR,,0.03,WeatherDisplay:10.37,2013-01-02 07:01:00,
2013-01-01 23:06:00,9.7,5.0,30.70,SSW,198,0.0,0.0,81,0.00,CLR,,0.03,WeatherDisplay:10.37,2013-01-02 07:06:00,
2013-01-01 23:11:00,9.3,4.4,30.70,SSW,198,0.0,0.0,80,0.00,CLR,,0.03,WeatherDisplay:10.37,2013-01-02 07:11:00,
2013-01-01 23:16:00,9.0,4.1,30.70,SSW,198,0.0,0.0,80,0.00,CLR,,0.03,WeatherDisplay:10.37,2013-01-02 07:16:00,
2013-01-01 23:21:00,8.6,3.7,30.70,SSW,198,0.0,0.0,80,0.00,CLR,,0.03,WeatherDisplay:10.37,2013-01-02 07:21:00,
2013-01-01 23:26:00,8.3,3.4,30.71,SSW,198,0.0,0.0,80,0.00,CLR,,0.03,WeatherDisplay:10.37,2013-01-02 07:26:00,
2013-01-01 23:31:00,7.9,2.7,30.71,SSW,198,0.0,0.0,79,0.00,CLR,,0.03,WeatherDisplay:10.37,2013-01-02 07:31:00,
2013-01-01 23:36:00,7.6,2.4,30.71,SSW,198,0.0,0.0,79,0.00,CLR,,0.03,WeatherDisplay:10.37,2013-01-02 07:36:00,
2013-01-01 23:41:00,7.4,2.3,30.71,SSW,198,0.0,0.0,79,0.00,CLR,,0.03,WeatherDisplay:10.37,2013-01-02 07:41:00,
2013-01-01 23:46:00,7.0,1.6,30.71,SSW,198,1.1,1.1,78,0.00,CLR,,0.03,WeatherDisplay:10.37,2013-01-02 07:46:00,
2013-01-01 23:51:00,6.7,1.3,30.70,SSW,198,0.0,0.0,78,0.00,CLR,,0.03,WeatherDisplay:10.37,2013-01-02 07:51:00,
2013-01-01 23:56:00,6.5,1.1,30.70,SSW,198,0.0,0.0,78,0.00,CLR,,0.03,WeatherDisplay:10.37,2013-01-02 07:56:00,